createdAt,value
2019-05-22T00:01:11.132Z,77.34
2019-05-22T00:03:44.963Z,77.82
2019-05-22T00:06:16.524Z,77.49
2019-05-22T00:08:44.619Z,77.82
2019-05-22T00:11:13.030Z,78.01
2019-05-22T00:13:41.243Z,78.04
2019-05-22T00:16:11.112Z,77.28
2019-05-22T00:18:39.551Z,77.21
2019-05-22T00:21:08.939Z,76.68
2019-05-22T00:23:40.018Z,77.46
2019-05-22T00:26:08.008Z,76.73
2019-05-22T00:28:38.040Z,76.91
2019-05-22T00:31:07.732Z,77.88
2019-05-22T00:33:36.413Z,76.50
2019-05-22T00:36:05.995Z,76.09
2019-05-22T00:38:34.239Z,76.19
2019-05-22T00:41:07.068Z,76.19
2019-05-22T00:43:38.803Z,76.58
2019-05-22T00:46:08.924Z,76.13
2019-05-22T00:48:40.582Z,76.20
2019-05-22T00:51:28.990Z,75.81
2019-05-22T00:54:07.551Z,76.19
2019-05-22T00:56:38.997Z,78.14
2019-05-22T00:59:14.721Z,77.35
2019-05-22T01:01:50.639Z,77.35
2019-05-22T01:04:22.393Z,77.76
2019-05-22T01:06:54.250Z,78.06
2019-05-22T01:09:30.563Z,78.08
2019-05-22T01:11:59.886Z,78.38
2019-05-22T01:14:41.913Z,77.35
2019-05-22T01:17:03.012Z,77.75
2019-05-22T01:19:33.597Z,78.27
2019-05-22T01:22:01.627Z,78.80
2019-05-22T01:24:30.429Z,77.66
2019-05-22T01:26:59.433Z,78.71
2019-05-22T01:29:29.698Z,78.38
2019-05-22T01:32:05.814Z,78.02
2019-05-22T01:34:35.193Z,78.36
2019-05-22T01:37:07.476Z,78.91
2019-05-22T01:40:07.205Z,78.76
2019-05-22T01:42:40.646Z,78.95
2019-05-22T01:45:11.031Z,80.61
2019-05-22T01:47:59.212Z,79.84
2019-05-22T01:50:46.465Z,79.67
2019-05-22T01:53:17.954Z,81.55
2019-05-22T01:55:47.992Z,81.79
2019-05-22T01:58:19.518Z,80.97
2019-05-22T02:00:48.635Z,80.91
2019-05-22T02:03:17.282Z,80.70
2019-05-22T02:05:47.316Z,81.04
2019-05-22T02:08:15.325Z,80.44
2019-05-22T02:10:46.228Z,79.07
2019-05-22T02:13:24.067Z,79.17
2019-05-22T02:15:53.195Z,79.50
2019-05-22T02:18:22.420Z,78.08
2019-05-22T02:20:51.128Z,78.53
2019-05-22T02:23:21.130Z,79.00
2019-05-22T02:25:50.459Z,77.56
2019-05-22T02:28:18.899Z,77.61
2019-05-22T02:30:48.179Z,78.92
2019-05-22T02:33:17.998Z,79.34
2019-05-22T02:35:46.780Z,78.48
2019-05-22T02:38:16.256Z,77.87
2019-05-22T02:40:46.296Z,77.28
2019-05-22T02:43:15.503Z,78.00
2019-05-22T02:45:44.051Z,78.00
2019-05-22T02:48:14.252Z,77.79
2019-05-22T02:50:43.049Z,78.12
2019-05-22T02:53:13.080Z,78.73
2019-05-22T02:55:41.176Z,78.65
2019-05-22T02:58:10.379Z,78.46
2019-05-22T03:01:01.653Z,78.13
2019-05-22T03:03:31.411Z,78.12
2019-05-22T03:06:03.622Z,78.43
2019-05-22T03:09:13.123Z,78.86
2019-05-22T03:11:49.104Z,79.62
2019-05-22T03:14:18.134Z,80.45
2019-05-22T03:16:51.170Z,81.11
2019-05-22T03:19:40.509Z,80.53
2019-05-22T03:22:22.987Z,81.10
2019-05-22T03:24:53.249Z,79.59
2019-05-22T03:27:37.077Z,78.85
2019-05-22T03:30:09.156Z,78.24
2019-05-22T03:32:43.344Z,78.58
2019-05-22T03:35:07.897Z,78.97
2019-05-22T03:37:37.092Z,79.42
2019-05-22T03:40:06.013Z,80.53
2019-05-22T03:42:35.282Z,81.02
2019-05-22T03:45:07.253Z,82.09
2019-05-22T03:47:35.873Z,80.67
2019-05-22T03:50:05.565Z,80.62
2019-05-22T03:52:34.011Z,81.95
2019-05-22T03:55:02.244Z,81.98
2019-05-22T03:57:32.723Z,80.81
2019-05-22T04:00:01.185Z,81.08
2019-05-22T04:02:30.347Z,79.46
2019-05-22T04:04:58.256Z,78.27
2019-05-22T04:07:27.981Z,78.28
2019-05-22T04:09:56.897Z,79.49
2019-05-22T04:12:24.660Z,79.30
2019-05-22T04:14:52.817Z,79.05
2019-05-22T04:17:21.354Z,79.66
2019-05-22T04:19:51.572Z,79.36
2019-05-22T04:22:19.219Z,77.91
2019-05-22T04:24:47.833Z,78.01
2019-05-22T04:27:16.294Z,78.21
2019-05-22T04:29:44.635Z,77.73
2019-05-22T04:32:16.643Z,77.52
2019-05-22T04:34:45.783Z,77.13
2019-05-22T04:37:15.081Z,76.07
2019-05-22T04:39:47.698Z,75.92
2019-05-22T04:42:16.727Z,77.44
2019-05-22T04:45:10.282Z,75.72
2019-05-22T04:47:39.155Z,75.50
2019-05-22T04:50:09.883Z,75.90
2019-05-22T04:52:38.063Z,76.21
2019-05-22T04:55:09.526Z,76.15
2019-05-22T04:57:37.939Z,75.07
2019-05-22T05:00:08.275Z,74.97
2019-05-22T05:02:38.128Z,74.48
2019-05-22T05:05:09.832Z,75.08
2019-05-22T05:07:38.697Z,74.38
2019-05-22T05:10:06.930Z,73.53
2019-05-22T05:12:35.239Z,73.59
2019-05-22T05:15:04.681Z,73.32
2019-05-22T05:17:32.569Z,73.30
2019-05-22T05:20:00.376Z,72.49
2019-05-22T05:22:43.946Z,72.48
2019-05-22T05:25:12.487Z,72.68
2019-05-22T05:27:40.499Z,72.10
2019-05-22T05:30:09.651Z,71.65
2019-05-22T05:32:38.931Z,72.21
2019-05-22T05:35:08.718Z,72.58
2019-05-22T05:37:37.500Z,71.61
2019-05-22T05:40:32.739Z,70.90
2019-05-22T05:43:01.684Z,71.40
2019-05-22T05:45:32.024Z,71.42
2019-05-22T05:48:02.325Z,71.19
2019-05-22T05:50:39.469Z,71.31
2019-05-22T05:53:05.926Z,71.21
2019-05-22T05:56:17.163Z,70.55
2019-05-22T05:58:46.673Z,70.33
2019-05-22T06:01:41.699Z,71.29
2019-05-22T06:04:10.425Z,72.78
2019-05-22T06:07:18.989Z,72.16
2019-05-22T06:10:11.927Z,72.24
2019-05-22T06:12:40.139Z,72.87
2019-05-22T06:15:09.131Z,73.27
2019-05-22T06:18:31.084Z,72.89
2019-05-22T06:21:04.040Z,73.85
2019-05-22T06:24:23.113Z,73.92
2019-05-22T06:27:10.527Z,73.37
2019-05-22T06:29:56.961Z,73.10
2019-05-22T06:33:16.584Z,72.34
2019-05-22T06:35:47.527Z,71.46
2019-05-22T06:38:55.892Z,71.31
2019-05-22T06:41:28.223Z,71.97
2019-05-22T06:44:34.506Z,70.57
2019-05-22T06:47:05.140Z,71.65
2019-05-22T06:49:44.257Z,71.40
2019-05-22T06:52:12.866Z,72.48
2019-05-22T06:54:40.804Z,72.45
2019-05-22T06:57:13.054Z,72.62
2019-05-22T06:59:42.873Z,72.81
2019-05-22T07:02:13.240Z,73.14
2019-05-22T07:04:41.569Z,73.18
2019-05-22T07:07:12.414Z,72.11
2019-05-22T07:09:42.944Z,71.32
2019-05-22T07:12:12.679Z,71.52
2019-05-22T07:15:41.398Z,71.05
2019-05-22T07:18:12.581Z,70.21
2019-05-22T07:20:41.396Z,70.93
2019-05-22T07:23:12.026Z,70.83
2019-05-22T07:25:42.011Z,69.77
2019-05-22T07:28:10.787Z,69.12
2019-05-22T07:30:39.069Z,69.49
2019-05-22T07:33:08.151Z,68.36
2019-05-22T07:35:56.097Z,68.35
2019-05-22T07:38:06.396Z,69.53
2019-05-22T07:40:36.113Z,70.26
2019-05-22T07:43:05.432Z,69.37
2019-05-22T07:45:34.476Z,68.63
2019-05-22T07:48:03.934Z,67.47
2019-05-22T07:50:35.820Z,67.32
2019-05-22T07:53:05.528Z,67.23
2019-05-22T07:55:34.883Z,67.25
2019-05-22T07:58:15.689Z,67.23
2019-05-22T08:00:51.144Z,68.15
2019-05-22T08:03:20.915Z,68.08
2019-05-22T08:05:54.292Z,67.27
2019-05-22T08:08:24.360Z,67.93
2019-05-22T08:10:55.489Z,68.19
2019-05-22T08:13:25.401Z,67.90
2019-05-22T08:15:53.426Z,68.39
2019-05-22T08:18:21.768Z,69.29
2019-05-22T08:20:50.181Z,68.76
2019-05-22T08:23:19.091Z,67.12
2019-05-22T08:25:47.007Z,67.38
2019-05-22T08:28:16.256Z,66.16
2019-05-22T08:30:45.155Z,65.79
2019-05-22T08:33:15.865Z,67.92
2019-05-22T08:35:44.582Z,69.15
2019-05-22T08:38:13.387Z,67.72
2019-05-22T08:40:41.250Z,68.20
2019-05-22T08:43:10.515Z,66.90
2019-05-22T08:45:38.325Z,66.01
2019-05-22T08:48:07.209Z,67.88
2019-05-22T08:50:36.853Z,68.44
2019-05-22T08:53:06.401Z,69.51
2019-05-22T08:55:34.807Z,69.03
2019-05-22T08:58:03.552Z,69.00
2019-05-22T09:00:32.024Z,68.88
2019-05-22T09:03:00.728Z,68.39
2019-05-22T09:05:28.525Z,67.25
2019-05-22T09:07:56.616Z,66.81
2019-05-22T09:10:26.233Z,66.84
2019-05-22T09:12:54.474Z,66.20
2019-05-22T09:15:23.084Z,65.01
2019-05-22T09:17:51.585Z,63.85
2019-05-22T09:20:21.185Z,65.20
2019-05-22T09:22:49.199Z,65.80
2019-05-22T09:25:17.540Z,65.22
2019-05-22T09:27:46.832Z,66.01
2019-05-22T09:30:14.738Z,64.81
2019-05-22T09:32:42.533Z,65.40
2019-05-22T09:35:11.368Z,66.06
2019-05-22T09:37:39.274Z,65.69
2019-05-22T09:40:08.282Z,65.18
2019-05-22T09:42:36.426Z,63.48
2019-05-22T09:45:06.913Z,62.35
2019-05-22T09:47:36.142Z,62.77
2019-05-22T09:50:06.140Z,62.36
2019-05-22T09:52:34.745Z,63.92
2019-05-22T09:55:03.257Z,64.18
2019-05-22T09:57:31.048Z,65.47
2019-05-22T09:59:58.936Z,66.98
2019-05-22T10:02:30.335Z,66.88
2019-05-22T10:04:58.096Z,66.29
2019-05-22T10:07:26.615Z,65.87
2019-05-22T10:09:54.420Z,65.26
2019-05-22T10:12:22.699Z,64.51
2019-05-22T10:14:51.176Z,66.23
2019-05-22T10:17:19.448Z,67.06
2019-05-22T10:19:48.593Z,68.00
2019-05-22T10:22:16.581Z,68.37
2019-05-22T10:24:49.303Z,68.46
2019-05-22T10:27:15.473Z,67.59
2019-05-22T10:29:44.124Z,67.39
2019-05-22T10:32:12.116Z,67.47
2019-05-22T10:34:40.460Z,66.96
2019-05-22T10:37:10.827Z,65.44
2019-05-22T10:39:39.056Z,65.34
2019-05-22T10:42:06.964Z,64.85
2019-05-22T10:44:35.046Z,64.76
2019-05-22T10:47:03.782Z,64.84
2019-05-22T10:49:31.685Z,65.66
2019-05-22T10:51:59.539Z,65.88
2019-05-22T10:54:27.294Z,66.88
2019-05-22T10:56:55.124Z,67.05
2019-05-22T10:59:23.075Z,65.99
2019-05-22T11:01:51.083Z,63.86
2019-05-22T11:04:21.491Z,63.59
2019-05-22T11:06:49.942Z,64.23
2019-05-22T11:09:18.338Z,64.93
2019-05-22T11:11:46.236Z,65.51
2019-05-22T11:14:14.329Z,65.00
2019-05-22T11:16:42.562Z,66.15
2019-05-22T11:19:10.782Z,66.51
2019-05-22T11:21:38.674Z,65.90
2019-05-22T11:24:06.648Z,64.32
2019-05-22T11:26:34.479Z,61.98
2019-05-22T11:29:03.377Z,62.04
2019-05-22T11:31:31.219Z,61.82
2019-05-22T11:33:59.118Z,62.46
2019-05-22T11:36:27.007Z,61.01
2019-05-22T11:38:54.901Z,60.06
2019-05-22T11:41:22.985Z,60.87
2019-05-22T11:43:51.047Z,61.73
2019-05-22T11:46:18.997Z,60.88
2019-05-22T11:48:47.208Z,61.15
2019-05-22T11:51:15.451Z,61.06
2019-05-22T11:53:43.566Z,61.16
2019-05-22T11:56:11.404Z,62.18
2019-05-22T11:58:39.528Z,61.89
2019-05-22T12:01:08.751Z,61.99
2019-05-22T12:03:38.911Z,60.99
2019-05-22T12:06:07.326Z,60.22
2019-05-22T12:08:35.845Z,60.99
2019-05-22T12:11:04.151Z,62.69
2019-05-22T12:13:32.788Z,63.73
2019-05-22T12:16:03.606Z,64.03
2019-05-22T12:18:31.635Z,64.19
2019-05-22T12:21:01.054Z,64.04
2019-05-22T12:23:29.605Z,65.43
2019-05-22T12:25:57.557Z,65.18
2019-05-22T12:28:25.968Z,65.49
2019-05-22T12:30:53.856Z,63.72
2019-05-22T12:33:22.292Z,64.04
2019-05-22T12:35:50.918Z,65.19
2019-05-22T12:38:21.244Z,66.28
2019-05-22T12:40:50.282Z,65.99
2019-05-22T12:43:18.805Z,67.80
2019-05-22T12:45:46.996Z,66.98
2019-05-22T12:48:15.697Z,67.45
2019-05-22T12:50:49.394Z,67.23
2019-05-22T12:53:19.328Z,66.75
2019-05-22T12:55:47.347Z,65.75
2019-05-22T12:58:15.412Z,67.83
2019-05-22T13:00:43.895Z,67.39
2019-05-22T13:03:13.390Z,66.23
2019-05-22T13:05:41.266Z,66.59
2019-05-22T13:08:12.276Z,66.96
2019-05-22T13:10:40.196Z,67.24
2019-05-22T13:13:09.153Z,66.94
2019-05-22T13:15:38.611Z,68.96
2019-05-22T13:18:09.759Z,68.07
2019-05-22T13:20:43.332Z,66.97
2019-05-22T13:23:12.355Z,66.33
2019-05-22T13:25:42.253Z,65.12
2019-05-22T13:28:13.373Z,66.28
2019-05-22T13:30:45.965Z,64.99
2019-05-22T13:33:20.233Z,65.38
2019-05-22T13:35:48.547Z,65.48
2019-05-22T13:38:16.937Z,65.99
2019-05-22T13:40:45.639Z,64.59
2019-05-22T13:43:13.631Z,65.35
2019-05-22T13:45:41.566Z,66.77
2019-05-22T13:48:10.349Z,66.84
2019-05-22T13:50:38.579Z,65.79
2019-05-22T13:53:08.037Z,65.02
2019-05-22T13:55:35.992Z,66.75
2019-05-22T13:58:05.272Z,67.41
2019-05-22T14:00:35.121Z,67.43
2019-05-22T14:03:03.604Z,66.52
2019-05-22T14:05:33.220Z,67.21
2019-05-22T14:08:01.270Z,67.41
2019-05-22T14:10:30.718Z,68.52
2019-05-22T14:12:59.712Z,67.30
2019-05-22T14:15:47.347Z,67.37
2019-05-22T14:17:58.331Z,66.70
2019-05-22T14:20:26.956Z,67.00
2019-05-22T14:22:54.789Z,66.66
2019-05-22T14:25:24.485Z,66.77
2019-05-22T14:27:52.407Z,67.32
2019-05-22T14:30:22.667Z,67.94
2019-05-22T14:32:51.166Z,68.63
2019-05-22T14:35:19.631Z,68.96
2019-05-22T14:37:47.641Z,69.32
2019-05-22T14:40:17.819Z,68.62
2019-05-22T14:42:45.659Z,68.56
2019-05-22T14:45:14.173Z,67.23
2019-05-22T14:47:42.354Z,66.91
2019-05-22T14:50:11.899Z,67.07
2019-05-22T14:52:40.343Z,68.31
2019-05-22T14:55:09.171Z,68.54
2019-05-22T14:57:37.444Z,67.46
2019-05-22T15:00:08.295Z,65.55
2019-05-22T15:02:36.270Z,67.20
2019-05-22T15:05:05.828Z,66.72
2019-05-22T15:07:33.773Z,65.69
2019-05-22T15:10:01.931Z,66.11
2019-05-22T15:12:30.436Z,65.51
2019-05-22T15:14:58.262Z,65.82
2019-05-22T15:17:32.623Z,65.52
2019-05-22T15:19:56.388Z,65.50
2019-05-22T15:22:24.722Z,65.79
2019-05-22T15:24:53.974Z,66.02
2019-05-22T15:27:22.300Z,65.75
2019-05-22T15:29:50.777Z,65.50
2019-05-22T15:32:19.133Z,65.97
2019-05-22T15:34:47.039Z,66.25
2019-05-22T15:37:18.810Z,66.04
2019-05-22T15:39:47.890Z,65.29
2019-05-22T15:42:39.136Z,64.32
2019-05-22T15:45:12.293Z,63.94
2019-05-22T15:47:53.320Z,61.96
2019-05-22T15:50:16.949Z,61.51
2019-05-22T15:52:52.669Z,61.29
2019-05-22T15:55:23.096Z,62.54
2019-05-22T15:57:51.199Z,60.10
2019-05-22T16:00:25.169Z,59.12
2019-05-22T16:02:54.684Z,59.52
2019-05-22T16:05:23.200Z,59.32
2019-05-22T16:07:51.986Z,59.83
2019-05-22T16:10:23.150Z,60.93
2019-05-22T16:12:52.272Z,61.76
2019-05-22T16:15:24.639Z,61.92
2019-05-22T16:18:10.554Z,62.32
2019-05-22T16:20:26.647Z,61.62
2019-05-22T16:22:55.349Z,61.59
2019-05-22T16:25:24.481Z,61.89
2019-05-22T16:27:54.006Z,61.76
2019-05-22T16:30:24.351Z,61.77
2019-05-22T16:32:55.584Z,62.28
2019-05-22T16:35:25.210Z,63.47
2019-05-22T16:37:55.970Z,63.03
2019-05-22T16:40:24.594Z,62.67
2019-05-22T16:42:54.152Z,61.51
2019-05-22T16:45:24.068Z,60.75
2019-05-22T16:47:54.464Z,60.44
2019-05-22T16:50:25.471Z,61.16
2019-05-22T16:52:53.885Z,60.94
2019-05-22T16:55:23.594Z,60.97
2019-05-22T16:57:52.948Z,60.76
2019-05-22T17:00:20.992Z,60.46
2019-05-22T17:02:49.029Z,60.08
2019-05-22T17:05:21.274Z,60.24
2019-05-22T17:07:50.234Z,59.92
2019-05-22T17:10:19.703Z,60.64
2019-05-22T17:12:48.543Z,60.94
2019-05-22T17:15:18.782Z,61.04
2019-05-22T17:17:47.271Z,60.91
2019-05-22T17:20:19.875Z,60.66
2019-05-22T17:22:47.696Z,60.71
2019-05-22T17:25:19.265Z,60.93
2019-05-22T17:27:48.505Z,61.81
2019-05-22T17:30:21.048Z,61.34
2019-05-22T17:32:49.089Z,61.27
2019-05-22T17:35:18.299Z,60.57
2019-05-22T17:37:47.031Z,59.49
2019-05-22T17:40:17.968Z,59.74
2019-05-22T17:42:47.863Z,59.99
2019-05-22T17:45:20.315Z,60.04
2019-05-22T17:47:50.326Z,59.24
2019-05-22T17:50:26.557Z,59.50
2019-05-22T17:52:51.061Z,59.30
2019-05-22T17:55:20.581Z,60.24
2019-05-22T17:57:48.803Z,60.10
2019-05-22T18:00:28.760Z,59.21
2019-05-22T18:02:57.309Z,58.99
2019-05-22T18:05:26.407Z,58.62
2019-05-22T18:07:54.635Z,58.25
2019-05-22T18:10:23.478Z,58.32
2019-05-22T18:12:51.730Z,58.77
2019-05-22T18:15:19.765Z,58.27
2019-05-22T18:17:50.345Z,58.35
2019-05-22T18:20:19.131Z,58.28
2019-05-22T18:22:47.245Z,58.69
2019-05-22T18:25:15.594Z,58.55
2019-05-22T18:27:43.468Z,59.11
2019-05-22T18:30:13.173Z,59.28
2019-05-22T18:32:41.631Z,58.97
2019-05-22T18:35:10.940Z,58.79
2019-05-22T18:37:39.024Z,58.76
2019-05-22T18:40:08.126Z,59.49
2019-05-22T18:42:36.213Z,59.31
2019-05-22T18:45:04.792Z,59.77
2019-05-22T18:47:32.725Z,60.04
2019-05-22T18:50:00.747Z,59.82
2019-05-22T18:52:40.416Z,59.85
2019-05-22T18:54:58.900Z,59.80
2019-05-22T18:57:26.891Z,60.33
2019-05-22T19:00:01.241Z,60.11
2019-05-22T19:02:24.485Z,60.24
2019-05-22T19:04:52.368Z,60.84
2019-05-22T19:07:20.331Z,60.79
2019-05-22T19:09:48.195Z,60.54
2019-05-22T19:12:16.925Z,60.01
2019-05-22T19:14:44.830Z,60.84
2019-05-22T19:17:13.020Z,60.45
2019-05-22T19:19:40.947Z,60.45
2019-05-22T19:22:08.786Z,60.74
2019-05-22T19:24:36.855Z,60.68
2019-05-22T19:27:04.736Z,61.25
2019-05-22T19:29:32.660Z,61.45
2019-05-22T19:32:00.514Z,61.25
2019-05-22T19:34:28.296Z,61.31
2019-05-22T19:36:56.138Z,61.93
2019-05-22T19:39:24.363Z,62.42
2019-05-22T19:42:01.985Z,62.45
2019-05-22T19:44:22.314Z,62.95
2019-05-22T19:46:50.686Z,62.73
2019-05-22T19:49:19.017Z,62.51
2019-05-22T19:51:49.093Z,62.84
2019-05-22T19:54:17.502Z,63.02
2019-05-22T19:56:46.044Z,63.00
2019-05-22T19:59:14.311Z,63.43
2019-05-22T20:01:42.871Z,63.89
2019-05-22T20:04:11.352Z,63.90
2019-05-22T20:06:39.488Z,63.68
2019-05-22T20:09:09.293Z,63.73
2019-05-22T20:11:37.150Z,63.23
2019-05-22T20:14:07.602Z,63.03
2019-05-22T20:16:35.528Z,62.86
2019-05-22T20:19:04.246Z,63.38
2019-05-22T20:21:32.362Z,62.93
2019-05-22T20:24:00.866Z,63.03
2019-05-22T20:26:29.097Z,63.00
2019-05-22T20:28:57.232Z,63.23
2019-05-22T20:31:25.311Z,63.53
2019-05-22T20:33:53.434Z,63.60
2019-05-22T20:36:21.756Z,63.58
2019-05-22T20:38:49.584Z,63.29
2019-05-22T20:41:19.375Z,63.69
2019-05-22T20:43:49.930Z,63.58
2019-05-22T20:46:19.130Z,63.66
2019-05-22T20:48:48.662Z,63.43
2019-05-22T20:51:17.617Z,63.81
2019-05-22T20:53:54.214Z,64.21
2019-05-22T20:56:21.168Z,64.75
2019-05-22T20:58:50.244Z,64.66
2019-05-22T21:01:18.316Z,64.82
2019-05-22T21:03:46.784Z,65.14
2019-05-22T21:06:17.751Z,65.35
2019-05-22T21:08:46.706Z,65.76
2019-05-22T21:11:18.858Z,65.94
2019-05-22T21:13:47.122Z,65.87
2019-05-22T21:16:16.730Z,66.19
2019-05-22T21:18:48.643Z,66.48
2019-05-22T21:21:17.330Z,66.80
2019-05-22T21:23:45.962Z,66.66
2019-05-22T21:26:17.090Z,66.91
2019-05-22T21:28:45.658Z,67.04
2019-05-22T21:31:15.996Z,67.07
2019-05-22T21:33:45.273Z,67.34
2019-05-22T21:36:15.719Z,67.51
2019-05-22T21:38:44.023Z,67.96
2019-05-22T21:41:12.533Z,67.42
2019-05-22T21:43:41.002Z,67.87
2019-05-22T21:46:09.233Z,67.99
2019-05-22T21:48:37.840Z,68.24
2019-05-22T21:51:06.857Z,68.21
2019-05-22T21:53:34.918Z,68.23
2019-05-22T21:56:06.232Z,68.66
2019-05-22T21:58:34.657Z,68.78
2019-05-22T22:01:21.713Z,68.75
2019-05-22T22:04:00.355Z,68.88
2019-05-22T22:06:28.369Z,69.12
2019-05-22T22:08:57.369Z,69.90
2019-05-22T22:11:27.755Z,69.71
2019-05-22T22:13:55.738Z,69.74
2019-05-22T22:16:23.631Z,69.99
2019-05-22T22:18:52.707Z,69.86
2019-05-22T22:21:21.578Z,70.08
2019-05-22T22:23:49.513Z,70.04
2019-05-22T22:26:25.246Z,70.49
2019-05-22T22:28:48.187Z,70.35
2019-05-22T22:31:19.990Z,70.52
2019-05-22T22:33:55.057Z,70.66
2019-05-22T22:36:23.477Z,70.87
2019-05-22T22:38:52.683Z,71.28
2019-05-22T22:41:21.981Z,71.16
2019-05-22T22:43:51.709Z,71.09
2019-05-22T22:46:38.939Z,71.07
2019-05-22T22:49:14.822Z,71.48
2019-05-22T22:51:42.943Z,71.48
2019-05-22T22:54:12.322Z,71.61
2019-05-22T22:56:41.442Z,72.06
2019-05-22T22:59:09.655Z,72.56
2019-05-22T23:01:40.671Z,72.40
2019-05-22T23:04:10.866Z,72.43
2019-05-22T23:06:39.252Z,72.67
2019-05-22T23:09:09.914Z,73.02
2019-05-22T23:11:40.952Z,73.23
2019-05-22T23:14:09.362Z,73.38
2019-05-22T23:16:39.114Z,73.36
2019-05-22T23:19:38.135Z,73.67
2019-05-22T23:22:05.320Z,73.48
2019-05-22T23:24:37.068Z,73.09
2019-05-22T23:27:06.054Z,73.75
2019-05-22T23:29:36.419Z,74.25
2019-05-22T23:32:05.925Z,74.17
2019-05-22T23:34:34.512Z,74.35
2019-05-22T23:37:03.171Z,74.99
2019-05-22T23:39:34.104Z,75.11
2019-05-22T23:42:12.045Z,75.23
2019-05-22T23:44:40.496Z,75.33
2019-05-22T23:47:10.610Z,75.39
2019-05-22T23:49:38.940Z,75.42
2019-05-22T23:52:09.463Z,75.65
2019-05-22T23:54:39.508Z,75.95
2019-05-22T23:57:12.366Z,76.37
2019-05-22T23:59:43.945Z,76.52
